createdAt,value
2022-10-23T00:01:29.823Z,2.00
2022-10-23T00:04:00.004Z,2.10
2022-10-23T00:06:29.167Z,2.22
2022-10-23T00:08:56.809Z,2.47
2022-10-23T00:11:28.320Z,3.03
2022-10-23T00:13:59.576Z,1.83
2022-10-23T00:16:27.986Z,2.17
2022-10-23T00:18:55.380Z,1.95
2022-10-23T00:21:23.228Z,1.65
2022-10-23T00:23:50.751Z,2.20
2022-10-23T00:26:18.307Z,2.28
2022-10-23T00:28:49.720Z,2.30
2022-10-23T00:31:17.738Z,1.88
2022-10-23T00:33:45.697Z,2.58
2022-10-23T00:36:15.228Z,4.32
2022-10-23T00:38:45.257Z,2.88
2022-10-23T00:41:22.900Z,3.13
2022-10-23T00:44:29.102Z,4.85
2022-10-23T00:46:58.096Z,2.55
2022-10-23T00:49:26.073Z,3.47
2022-10-23T00:51:59.008Z,4.97
2022-10-23T00:54:31.502Z,4.75
2022-10-23T00:57:01.837Z,3.03
2022-10-23T00:59:30.229Z,4.72
2022-10-23T01:01:58.674Z,3.83
2022-10-23T01:04:28.162Z,6.38
2022-10-23T01:07:05.550Z,4.90
2022-10-23T01:09:47.048Z,3.67
2022-10-23T01:12:43.386Z,4.47
2022-10-23T01:15:22.056Z,5.10
2022-10-23T01:17:56.958Z,3.30
2022-10-23T01:20:40.662Z,3.28
2022-10-23T01:23:38.067Z,3.60
2022-10-23T01:26:26.025Z,6.15
2022-10-23T01:29:37.986Z,6.57
2022-10-23T01:32:15.436Z,3.03
2022-10-23T01:34:51.976Z,3.00
2022-10-23T01:37:27.195Z,3.42
2022-10-23T01:40:03.606Z,6.28
2022-10-23T01:42:40.383Z,5.20
2022-10-23T01:45:19.268Z,3.55
2022-10-23T01:47:49.569Z,10.27
2022-10-23T01:50:19.696Z,4.72
2022-10-23T01:52:49.203Z,3.28
2022-10-23T01:55:17.989Z,6.05
2022-10-23T01:57:47.359Z,2.65
2022-10-23T02:00:18.085Z,7.18
2022-10-23T02:02:56.129Z,5.95
2022-10-23T02:05:31.683Z,9.93
2022-10-23T02:08:01.397Z,3.95
2022-10-23T02:10:40.876Z,3.97
2022-10-23T02:13:19.081Z,3.78
2022-10-23T02:15:57.536Z,3.05
2022-10-23T02:18:40.479Z,4.65
2022-10-23T02:21:16.479Z,5.75
2022-10-23T02:24:05.356Z,5.15
2022-10-23T02:27:10.233Z,6.47
2022-10-23T02:29:56.972Z,3.33
2022-10-23T02:32:27.188Z,5.47
2022-10-23T02:34:55.112Z,4.68
2022-10-23T02:37:25.509Z,5.35
2022-10-23T02:39:54.224Z,3.58
2022-10-23T02:42:22.307Z,3.55
2022-10-23T02:45:02.769Z,3.75
2022-10-23T02:47:36.688Z,5.47
2022-10-23T02:50:40.663Z,3.90
2022-10-23T02:53:35.375Z,4.55
2022-10-23T02:56:38.509Z,7.57
2022-10-23T02:59:17.447Z,4.68
2022-10-23T03:01:52.562Z,6.55
2022-10-23T03:04:24.878Z,7.72
2022-10-23T03:06:52.761Z,3.97
2022-10-23T03:09:20.265Z,4.88
2022-10-23T03:11:47.554Z,5.10
2022-10-23T03:14:14.912Z,7.13
2022-10-23T03:16:42.243Z,6.18
2022-10-23T03:21:44.202Z,5.00
2022-10-23T03:24:11.502Z,6.82
2022-10-23T03:26:42.782Z,6.32
2022-10-23T03:29:10.723Z,5.40
2022-10-23T03:31:43.772Z,3.38
2022-10-23T03:34:11.657Z,7.32
2022-10-23T03:36:41.295Z,4.90
2022-10-23T03:39:10.123Z,6.40
2022-10-23T03:41:37.486Z,4.05
2022-10-23T03:46:37.375Z,4.13
2022-10-23T03:49:05.727Z,7.10
2022-10-23T03:51:33.193Z,4.35
2022-10-23T03:54:00.599Z,5.30
2022-10-23T03:56:27.997Z,3.70
2022-10-23T03:58:55.348Z,3.60
2022-10-23T04:01:25.621Z,4.35
2022-10-23T04:03:53.010Z,4.95
2022-10-23T04:06:20.431Z,5.38
2022-10-23T04:08:47.941Z,5.57
2022-10-23T04:11:17.761Z,2.55
2022-10-23T04:13:46.634Z,4.97
2022-10-23T04:16:14.022Z,5.18
2022-10-23T04:18:41.911Z,4.32
2022-10-23T04:21:11.668Z,5.55
2022-10-23T04:23:39.544Z,5.88
2022-10-23T04:26:13.119Z,4.07
2022-10-23T04:28:40.666Z,6.90
2022-10-23T04:31:08.107Z,4.30
2022-10-23T04:33:35.457Z,5.35
2022-10-23T04:36:02.836Z,3.85
2022-10-23T04:38:30.235Z,4.82
2022-10-23T04:40:57.572Z,3.25
2022-10-23T04:43:24.989Z,5.70
2022-10-23T04:45:52.385Z,3.63
2022-10-23T04:48:23.377Z,6.22
2022-10-23T04:51:19.191Z,4.35
2022-10-23T04:54:01.496Z,5.45
2022-10-23T04:56:45.462Z,6.57
2022-10-23T04:59:16.855Z,3.97
2022-10-23T05:01:44.434Z,5.32
2022-10-23T05:04:11.939Z,4.25
2022-10-23T05:06:59.164Z,4.70
2022-10-23T05:09:42.992Z,8.60
2022-10-23T05:12:29.802Z,6.13
2022-10-23T05:14:57.696Z,13.50
2022-10-23T05:17:37.558Z,6.10
2022-10-23T05:20:12.685Z,6.28
2022-10-23T05:22:42.744Z,5.82
2022-10-23T05:25:13.537Z,7.93
2022-10-23T05:27:45.983Z,7.07
2022-10-23T05:30:15.250Z,6.88
2022-10-23T05:32:43.000Z,4.50
2022-10-23T05:35:15.806Z,7.07
2022-10-23T05:37:48.158Z,6.15
2022-10-23T05:40:20.901Z,15.90
2022-10-23T05:42:50.251Z,5.60
2022-10-23T05:45:22.100Z,6.35
2022-10-23T05:48:16.851Z,6.97
2022-10-23T05:51:11.702Z,10.00
2022-10-23T05:53:47.728Z,4.85
2022-10-23T05:56:19.821Z,3.55
2022-10-23T05:58:55.585Z,14.98
2022-10-23T06:01:31.780Z,7.70
2022-10-23T06:04:04.854Z,6.10
2022-10-23T06:06:56.179Z,4.32
2022-10-23T06:09:23.736Z,3.97
2022-10-23T06:11:56.271Z,3.15
2022-10-23T06:14:23.949Z,3.90
2022-10-23T06:16:52.622Z,7.40
2022-10-23T06:19:20.721Z,7.32
2022-10-23T06:21:52.077Z,4.15
2022-10-23T06:24:19.541Z,11.63
2022-10-23T06:26:54.793Z,4.68
2022-10-23T06:29:32.495Z,4.18
2022-10-23T06:32:01.119Z,4.88
2022-10-23T06:34:28.442Z,6.93
2022-10-23T06:36:55.993Z,7.03
2022-10-23T06:39:44.596Z,4.05
2022-10-23T06:42:35.251Z,6.88
2022-10-23T06:45:25.252Z,5.82
2022-10-23T06:48:12.777Z,4.45
2022-10-23T06:50:48.908Z,7.57
2022-10-23T06:53:20.799Z,15.93
2022-10-23T06:55:58.449Z,6.13
2022-10-23T06:58:25.953Z,3.90
2022-10-23T07:01:02.060Z,6.07
2022-10-23T07:03:29.993Z,4.38
2022-10-23T07:06:03.162Z,4.47
2022-10-23T07:08:30.935Z,5.28
2022-10-23T07:11:02.473Z,5.78
2022-10-23T07:13:29.844Z,7.72
2022-10-23T07:16:12.459Z,6.90
2022-10-23T07:18:40.771Z,4.60
2022-10-23T07:21:31.201Z,5.20
2022-10-23T07:24:17.901Z,7.07
2022-10-23T07:26:45.792Z,6.20
2022-10-23T07:29:14.259Z,12.52
2022-10-23T07:31:42.717Z,5.50
2022-10-23T07:34:28.847Z,4.68
2022-10-23T07:37:30.398Z,8.25
2022-10-23T07:40:00.020Z,6.90
2022-10-23T07:42:27.642Z,6.05
2022-10-23T07:44:54.922Z,5.28
2022-10-23T07:47:22.844Z,6.85
2022-10-23T07:49:51.964Z,7.20
2022-10-23T07:52:20.801Z,7.03
2022-10-23T07:55:10.921Z,7.07
2022-10-23T07:57:43.956Z,6.32
2022-10-23T08:00:29.560Z,5.47
2022-10-23T08:03:08.109Z,5.00
2022-10-23T08:05:35.464Z,6.03
2022-10-23T08:08:04.479Z,7.57
2022-10-23T08:10:32.374Z,5.10
2022-10-23T08:13:00.556Z,7.32
2022-10-23T08:15:49.320Z,6.75
2022-10-23T08:18:36.632Z,4.82
2022-10-23T08:21:04.497Z,4.43
2022-10-23T08:23:32.828Z,4.85
2022-10-23T08:26:02.138Z,4.00
2022-10-23T08:28:32.419Z,7.00
2022-10-23T08:31:11.019Z,6.25
2022-10-23T08:33:40.086Z,7.80
2022-10-23T08:36:26.691Z,6.60
2022-10-23T08:38:56.616Z,5.72
2022-10-23T08:41:29.940Z,8.70
2022-10-23T08:44:28.052Z,6.70
2022-10-23T08:47:19.635Z,6.57
2022-10-23T08:50:32.186Z,4.55
2022-10-23T08:53:21.145Z,4.43
2022-10-23T08:56:03.476Z,6.95
2022-10-23T08:58:42.620Z,5.80
2022-10-23T09:01:25.584Z,3.55
2022-10-23T09:03:53.066Z,4.88
2022-10-23T09:06:40.905Z,6.18
2022-10-23T09:09:32.374Z,4.28
2022-10-23T09:12:02.866Z,5.15
2022-10-23T09:15:06.895Z,3.97
2022-10-23T09:20:31.554Z,5.55
2022-10-23T09:23:22.503Z,8.70
2022-10-23T09:25:55.533Z,6.32
2022-10-23T09:28:32.586Z,6.10
2022-10-23T09:31:08.878Z,5.15
2022-10-23T09:33:37.293Z,4.03
2022-10-23T09:36:25.941Z,4.22
2022-10-23T09:38:55.841Z,5.55
2022-10-23T09:41:38.960Z,5.85
2022-10-23T09:44:14.910Z,3.97
2022-10-23T09:46:45.403Z,5.00
2022-10-23T09:49:25.049Z,5.15
2022-10-23T09:52:06.313Z,4.60
2022-10-23T09:54:48.587Z,5.85
2022-10-23T09:57:28.877Z,4.35
2022-10-23T10:00:01.253Z,3.85
2022-10-23T10:02:33.906Z,5.93
2022-10-23T10:05:26.804Z,4.55
2022-10-23T10:08:17.749Z,4.78
2022-10-23T10:10:52.511Z,6.22
2022-10-23T10:13:31.808Z,6.60
2022-10-23T10:16:06.643Z,7.57
2022-10-23T10:18:56.259Z,8.82
2022-10-23T10:21:47.858Z,4.78
2022-10-23T10:24:23.254Z,3.75
2022-10-23T10:27:08.976Z,2.83
2022-10-23T10:29:57.932Z,5.28
2022-10-23T10:32:35.836Z,4.28
2022-10-23T10:35:39.172Z,4.07
2022-10-23T10:38:21.548Z,3.65
2022-10-23T10:41:06.892Z,6.78
2022-10-23T10:43:40.138Z,4.30
2022-10-23T10:46:20.602Z,4.70
2022-10-23T10:49:03.992Z,3.92
2022-10-23T10:52:03.398Z,8.02
2022-10-23T10:57:00.151Z,4.93
2022-10-23T10:59:38.884Z,4.32
2022-10-23T11:02:19.254Z,8.15
2022-10-23T11:04:57.295Z,5.35
2022-10-23T11:07:33.408Z,9.82
2022-10-23T11:10:05.354Z,5.93
2022-10-23T11:12:32.867Z,2.85
2022-10-23T11:15:00.282Z,8.15
2022-10-23T11:17:38.169Z,5.35
2022-10-23T11:20:33.018Z,6.07
2022-10-23T11:23:29.303Z,6.65
2022-10-23T11:26:18.842Z,4.47
2022-10-23T11:29:24.595Z,7.35
2022-10-23T11:32:24.164Z,4.88
2022-10-23T11:34:54.246Z,6.93
2022-10-23T11:37:22.812Z,6.05
2022-10-23T11:40:08.303Z,6.85
2022-10-23T11:42:41.695Z,3.38
2022-10-23T11:45:45.712Z,5.15
2022-10-23T11:50:55.517Z,5.13
2022-10-23T11:53:32.176Z,6.90
2022-10-23T11:56:11.919Z,8.25
2022-10-23T11:58:51.637Z,3.95
2022-10-23T12:01:28.135Z,4.85
2022-10-23T12:04:13.854Z,8.13
2022-10-23T12:06:46.785Z,3.90
2022-10-23T12:12:09.404Z,4.07
2022-10-23T12:14:41.497Z,5.82
2022-10-23T12:17:24.732Z,4.60
2022-10-23T12:20:14.853Z,10.07
2022-10-23T12:22:58.072Z,5.53
2022-10-23T12:28:16.507Z,4.32
2022-10-23T12:31:25.538Z,4.97
2022-10-23T12:34:13.943Z,4.07
2022-10-23T12:37:03.078Z,7.50
2022-10-23T12:39:32.497Z,6.25
2022-10-23T12:42:00.775Z,8.80
2022-10-23T12:44:29.084Z,3.83
2022-10-23T12:47:02.091Z,8.40
2022-10-23T12:49:33.551Z,4.93
2022-10-23T12:52:03.976Z,6.07
2022-10-23T12:54:33.442Z,6.32
2022-10-23T12:57:00.731Z,8.35
2022-10-23T12:59:37.924Z,4.93
2022-10-23T13:02:20.488Z,5.07
2022-10-23T13:04:49.898Z,6.95
2022-10-23T13:07:20.724Z,5.75
2022-10-23T13:09:48.764Z,5.05
2022-10-23T13:12:27.643Z,12.27
2022-10-23T13:15:08.744Z,6.38
2022-10-23T13:17:45.316Z,5.43
2022-10-23T13:20:18.763Z,6.78
2022-10-23T13:25:41.148Z,10.35
2022-10-23T13:28:08.410Z,8.75
2022-10-23T13:30:38.821Z,6.47
2022-10-23T13:33:21.131Z,7.03
2022-10-23T13:35:59.532Z,6.95
2022-10-23T13:38:31.738Z,15.23
2022-10-23T13:41:00.982Z,13.13
2022-10-23T13:43:30.677Z,6.80
2022-10-23T13:46:02.037Z,8.43
2022-10-23T13:48:29.864Z,6.10
2022-10-23T13:51:09.734Z,5.05
2022-10-23T13:53:37.022Z,9.35
2022-10-23T13:56:04.471Z,10.23
2022-10-23T13:58:31.903Z,5.28
2022-10-23T14:00:59.623Z,10.15
2022-10-23T14:03:27.087Z,10.32
2022-10-23T14:05:54.517Z,11.38
2022-10-23T14:08:22.269Z,7.30
2022-10-23T14:10:49.667Z,9.23
2022-10-23T14:13:17.084Z,6.15
2022-10-23T14:15:44.332Z,6.90
2022-10-23T14:18:11.635Z,4.57
2022-10-23T14:20:39.420Z,7.13
2022-10-23T14:23:06.760Z,6.78
2022-10-23T14:25:34.068Z,8.27
2022-10-23T14:28:01.337Z,7.50
2022-10-23T14:30:28.860Z,5.95
2022-10-23T14:32:56.177Z,10.82
2022-10-23T14:35:25.472Z,8.55
2022-10-23T14:37:52.890Z,9.35
2022-10-23T14:40:20.171Z,8.00
2022-10-23T14:42:47.880Z,8.95
2022-10-23T14:45:15.500Z,7.57
2022-10-23T14:47:43.152Z,8.55
2022-10-23T14:50:12.068Z,7.15
2022-10-23T14:52:39.366Z,9.75
2022-10-23T14:55:06.959Z,5.35
2022-10-23T14:57:34.456Z,5.88
2022-10-23T15:00:01.822Z,8.20
2022-10-23T15:02:29.191Z,8.57
2022-10-23T15:04:56.612Z,6.97
2022-10-23T15:07:23.992Z,6.78
2022-10-23T15:09:51.942Z,6.00
2022-10-23T15:12:19.354Z,8.55
2022-10-23T15:14:46.644Z,6.93
2022-10-23T15:17:15.764Z,6.57
2022-10-23T15:19:43.285Z,13.85
2022-10-23T15:22:10.593Z,8.00
2022-10-23T15:24:37.920Z,8.85
2022-10-23T15:27:05.313Z,6.13
2022-10-23T15:29:32.677Z,8.02
2022-10-23T15:32:01.475Z,8.57
2022-10-23T15:34:30.161Z,4.60
2022-10-23T15:36:58.280Z,7.75
2022-10-23T15:39:28.710Z,6.13
2022-10-23T15:41:56.916Z,6.30
2022-10-23T15:44:26.403Z,6.10
2022-10-23T15:46:54.212Z,9.15
2022-10-23T15:49:21.603Z,10.48
2022-10-23T15:51:48.877Z,5.65
2022-10-23T15:54:19.173Z,8.95
2022-10-23T15:56:48.838Z,6.15
2022-10-23T15:59:17.733Z,6.38
2022-10-23T16:01:45.404Z,7.25
2022-10-23T16:04:13.335Z,11.15
2022-10-23T16:06:40.962Z,6.10
2022-10-23T16:09:08.419Z,6.95
2022-10-23T16:11:38.410Z,6.38
2022-10-23T16:14:06.041Z,8.02
2022-10-23T16:16:34.957Z,10.48
2022-10-23T16:19:04.577Z,7.20
2022-10-23T16:21:34.880Z,10.95
2022-10-23T16:24:05.081Z,10.68
2022-10-23T16:26:32.599Z,8.63
2022-10-23T16:29:02.626Z,6.65
2022-10-23T16:31:29.945Z,10.63
2022-10-23T16:33:59.135Z,10.10
2022-10-23T16:36:27.005Z,12.40
2022-10-23T16:39:14.805Z,6.40
2022-10-23T16:42:00.454Z,6.88
2022-10-23T16:44:38.196Z,9.63
2022-10-23T16:47:06.925Z,6.60
2022-10-23T16:49:34.640Z,9.82
2022-10-23T16:52:01.981Z,10.57
2022-10-23T16:54:29.258Z,10.85
2022-10-23T16:56:56.550Z,8.25
2022-10-23T16:59:24.171Z,8.88
2022-10-23T17:01:51.937Z,8.68
2022-10-23T17:04:19.507Z,10.82
2022-10-23T17:06:46.914Z,7.80
2022-10-23T17:09:14.672Z,9.65
2022-10-23T17:11:44.532Z,10.77
2022-10-23T17:14:18.306Z,7.03
2022-10-23T17:16:51.276Z,8.98
2022-10-23T17:19:40.107Z,8.35
2022-10-23T17:22:10.775Z,18.17
2022-10-23T17:24:40.332Z,9.95
2022-10-23T17:27:07.900Z,7.70
2022-10-23T17:29:35.246Z,10.85
2022-10-23T17:32:02.807Z,9.68
2022-10-23T17:34:30.163Z,10.77
2022-10-23T17:36:57.786Z,10.48
2022-10-23T17:39:27.882Z,10.32
2022-10-23T17:41:56.080Z,9.00
2022-10-23T17:44:23.929Z,9.80
2022-10-23T17:46:53.545Z,9.57
2022-10-23T17:49:22.165Z,6.93
2022-10-23T17:51:55.087Z,10.65
2022-10-23T17:54:23.477Z,8.98
2022-10-23T17:56:51.085Z,9.85
2022-10-23T17:59:19.792Z,7.57
2022-10-23T18:01:48.681Z,10.60
2022-10-23T18:04:18.487Z,6.75
2022-10-23T18:06:49.035Z,9.73
2022-10-23T18:09:16.520Z,11.75
2022-10-23T18:11:48.105Z,9.73
2022-10-23T18:14:18.546Z,9.25
2022-10-23T18:16:46.417Z,12.32
2022-10-23T18:19:15.711Z,9.90
2022-10-23T18:21:43.079Z,10.90
2022-10-23T18:24:11.133Z,7.68
2022-10-23T18:26:40.007Z,9.65
2022-10-23T18:29:08.639Z,9.60
2022-10-23T18:31:37.486Z,12.13
2022-10-23T18:34:08.096Z,8.23
2022-10-23T18:36:40.815Z,13.93
2022-10-23T18:39:11.847Z,8.80
2022-10-23T18:41:41.391Z,15.15
2022-10-23T18:44:10.089Z,10.90
2022-10-23T18:46:37.513Z,11.77
2022-10-23T18:49:05.261Z,8.90
2022-10-23T18:51:35.243Z,12.38
2022-10-23T18:54:06.951Z,11.93
2022-10-23T18:56:35.993Z,9.25
2022-10-23T18:59:05.516Z,15.77
2022-10-23T19:01:34.447Z,11.80
2022-10-23T19:04:03.105Z,15.43
2022-10-23T19:06:31.536Z,10.40
2022-10-23T19:08:59.483Z,8.82
2022-10-23T19:11:28.806Z,10.88
2022-10-23T19:13:56.267Z,12.65
2022-10-23T19:16:28.153Z,10.30
2022-10-23T19:19:05.229Z,10.93
2022-10-23T19:21:36.732Z,12.75
2022-10-23T19:24:09.371Z,11.88
2022-10-23T19:26:39.931Z,13.05
2022-10-23T19:29:10.412Z,10.68
2022-10-23T19:31:38.315Z,10.90
2022-10-23T19:34:06.168Z,11.75
2022-10-23T19:36:33.907Z,14.23
2022-10-23T19:39:01.659Z,12.07
2022-10-23T19:41:31.375Z,11.95
2022-10-23T19:43:59.298Z,10.80
2022-10-23T19:46:27.688Z,8.25
2022-10-23T19:48:55.637Z,11.10
2022-10-23T19:51:23.541Z,11.52
2022-10-23T19:56:20.236Z,13.70
2022-10-23T19:58:48.352Z,12.07
2022-10-23T20:01:22.085Z,12.75
2022-10-23T20:03:50.635Z,13.63
2022-10-23T20:06:21.867Z,11.02
2022-10-23T20:08:49.914Z,13.27
2022-10-23T20:11:24.129Z,12.88
2022-10-23T20:13:52.566Z,8.25
2022-10-23T20:16:22.137Z,9.60
2022-10-23T20:18:50.235Z,15.95
2022-10-23T20:21:18.131Z,16.95
2022-10-23T20:23:46.213Z,13.02
2022-10-23T20:26:17.043Z,11.73
2022-10-23T20:28:51.312Z,8.63
2022-10-23T20:31:20.461Z,11.40
2022-10-23T20:33:48.113Z,11.13
2022-10-23T20:36:33.809Z,14.48
2022-10-23T20:39:07.050Z,11.15
2022-10-23T20:44:10.823Z,12.93
2022-10-23T20:46:38.612Z,14.25
2022-10-23T20:49:06.040Z,11.55
2022-10-23T20:51:33.520Z,13.00
2022-10-23T20:54:00.851Z,9.40
2022-10-23T20:56:32.299Z,12.55
2022-10-23T20:59:27.019Z,12.40
2022-10-23T21:01:56.290Z,9.20
2022-10-23T21:04:27.463Z,14.30
2022-10-23T21:07:09.480Z,12.50
2022-10-23T21:09:38.294Z,12.80
2022-10-23T21:12:06.688Z,11.38
2022-10-23T21:14:34.725Z,13.13
2022-10-23T21:17:02.171Z,12.35
2022-10-23T21:19:29.598Z,11.25
2022-10-23T21:21:57.108Z,14.68
2022-10-23T21:24:24.647Z,8.77
2022-10-23T21:26:52.047Z,15.32
2022-10-23T21:29:20.372Z,11.63
2022-10-23T21:32:03.905Z,12.18
2022-10-23T21:34:31.291Z,11.13
2022-10-23T21:37:14.831Z,16.60
2022-10-23T21:39:44.083Z,10.57
2022-10-23T21:42:12.957Z,12.18
2022-10-23T21:44:40.525Z,13.52
2022-10-23T21:47:07.857Z,10.45
2022-10-23T21:49:35.263Z,16.73
2022-10-23T21:52:03.391Z,10.65
2022-10-23T21:54:30.728Z,13.48
2022-10-23T21:56:58.024Z,9.43
2022-10-23T21:59:29.069Z,15.45
2022-10-23T22:01:59.158Z,9.90
2022-10-23T22:04:26.817Z,13.02
2022-10-23T22:06:54.164Z,18.08
2022-10-23T22:09:22.228Z,11.75
2022-10-23T22:11:50.956Z,10.63
2022-10-23T22:14:18.885Z,10.15
2022-10-23T22:16:46.911Z,9.95
2022-10-23T22:19:16.885Z,11.18
2022-10-23T22:21:44.773Z,16.02
2022-10-23T22:24:12.779Z,12.13
2022-10-23T22:26:46.199Z,14.95
2022-10-23T22:29:17.701Z,13.80
2022-10-23T22:31:48.866Z,17.20
2022-10-23T22:37:16.482Z,11.73
2022-10-23T22:39:43.884Z,12.52
2022-10-23T22:42:11.223Z,18.45
2022-10-23T22:44:38.613Z,9.98
2022-10-23T22:47:06.389Z,13.80
2022-10-23T22:49:33.655Z,12.80
2022-10-23T22:52:01.002Z,12.77
2022-10-23T22:54:30.465Z,12.60
2022-10-23T22:56:57.907Z,10.80
2022-10-23T22:59:25.234Z,12.18
2022-10-23T23:01:52.475Z,11.90
2022-10-23T23:07:09.491Z,9.32
2022-10-23T23:09:41.359Z,12.77
2022-10-23T23:12:10.716Z,13.82
2022-10-23T23:14:38.563Z,16.27
2022-10-23T23:17:07.406Z,10.40
2022-10-23T23:19:35.200Z,10.23
2022-10-23T23:22:02.800Z,10.15
2022-10-23T23:24:30.340Z,10.68
2022-10-23T23:26:57.682Z,10.68
2022-10-23T23:29:25.106Z,13.55
2022-10-23T23:31:52.570Z,10.30
2022-10-23T23:34:19.921Z,8.57
2022-10-23T23:36:47.315Z,10.77
2022-10-23T23:39:14.603Z,9.88
2022-10-23T23:41:42.201Z,10.05
2022-10-23T23:44:09.622Z,8.82
2022-10-23T23:46:36.964Z,12.65
2022-10-23T23:49:04.325Z,17.95
2022-10-23T23:51:31.840Z,9.57
2022-10-23T23:53:59.350Z,18.50
2022-10-23T23:56:28.100Z,10.73
2022-10-23T23:58:55.444Z,12.10
